• Join FlightAware (Why Join?)
  • Login
  • US Flag 
07:18AM EST


 

Airport Tracker/Info


-or-


 

Live Flight TrackerFlight Track Log ✈ N8867Y ✈ 08-May-2013 ✈ KAID - KPTK

Flight Track Log - Related Links

Times and Time Zones

All times are in EDT time to prevent confusion due to time zone crossing. See the N8867Y flight status page for this flight to view local times or setup timezone preferences in your user account.

Time Position Orientation Groundspeed Altitude Reporting Facility
EDT Latitude Longitude Course Direction KTS MPH feet Rate Location/Type
07:22PM 40.1167 -85.5667 349° North 108 124 2,200  Level Indianapolis TRACON
07:23PM 40.1572 -85.5767 349° North 111 128 3,100 720 Climbing Indianapolis Center
07:24PM 40.1872 -85.5633 19° North 114 131 3,800 660 Climbing Chicago Center
07:25PM 40.2000 -85.5211 68° East 131 151 4,500 540 Climbing Chicago Center
07:26PM 40.2122 -85.4792 69° East 126 145 5,000 120 Climbing Chicago Center
07:27PM 40.2339 -85.4231 63° Northeast 140 161 4,800 -180 Descending Chicago Center
07:28PM 40.2672 -85.4036 24° Northeast 145 167 4,700  Descending Chicago Center
07:29PM 40.3039 -85.3956 10° North 137 158 4,900 120 Climbing Chicago Center
07:30PM 40.3403 -85.3861 11° North 134 154 5,000 60 Climbing Chicago Center
07:31PM 40.3756 -85.3722 17° North 133 153 5,100  Climbing Chicago Center
07:32PM 40.4117 -85.3642 10° North 132 152 5,100 -60 Level Chicago Center
07:33PM 40.4553 -85.3503 14° North 134 154 5,000 -60 Descending Chicago Center
07:34PM 40.4919 -85.3339 19° North 137 158 5,000 -60 Level Chicago Center
07:35PM 40.5236 -85.3061 34° Northeast 137 158 4,900  Descending Chicago Center
07:36PM 40.5564 -85.2808 30° Northeast 138 159 5,000  Climbing Chicago Center
07:37PM 40.5897 -85.2558 30° Northeast 138 159 4,900  Descending Chicago Center
07:38PM 40.6306 -85.2264 29° Northeast 139 160 5,100 60 Climbing Chicago Center
07:39PM 40.6611 -85.2044 29° Northeast 137 158 5,100 -60 Level Chicago Center
07:40PM 40.6950 -85.1797 29° Northeast 138 159 5,000  Descending Chicago Center
07:41PM 40.7278 -85.1517 33° Northeast 142 163 5,100  Climbing Chicago Center
07:42PM 40.7658 -85.1183 34° Northeast 138 159 5,000  Descending Chicago Center
07:43PM 40.7975 -85.0917 33° Northeast 137 158 5,100  Climbing Chicago Center
07:44PM 40.8311 -85.0672 29° Northeast 138 159 5,000 -60 Descending Chicago Center
07:45PM 40.8642 -85.0400 32° Northeast 140 161 5,000 -60 Level Chicago Center
07:46PM 40.8956 -85.0125 34° Northeast 138 159 4,900 -60 Descending Chicago Center
07:47PM 40.9283 -84.9875 30° Northeast 137 158 4,900  Level Chicago Center
07:49PM 40.9669 -84.9608 28° Northeast 135 155 5,000  Climbing Chicago Center
07:50PM 40.9989 -84.9383 28° Northeast 132 152 5,000  Level Chicago Center
07:51PM 41.0306 -84.9117 32° Northeast 132 152 5,000  Level Chicago Center
07:52PM 41.0625 -84.8858 31° Northeast 133 153 5,000 60 Level Chicago Center
07:53PM 41.0911 -84.8531 41° Northeast 135 155 5,200  Climbing Chicago Center
07:54PM 41.1156 -84.8100 53° Northeast 141 162 5,000 -180 Descending Chicago Center
07:55PM 41.1494 -84.7667 44° Northeast 142 163 4,900 -120 Descending Chicago Center
07:56PM 41.1733 -84.7311 48° Northeast 138 159 4,800  Descending Chicago Center
07:57PM 41.2019 -84.7075 32° Northeast 129 148 5,000 120 Climbing Chicago Center
07:58PM 41.2350 -84.6883 24° Northeast 127 146 5,100  Climbing Chicago Center
07:59PM 41.2681 -84.6675 25° Northeast 129 148 5,100 -60 Level Chicago Center
08:00PM 41.3106 -84.6411 25° Northeast 134 154 5,000 -120 Descending Chicago Center
08:01PM 41.3467 -84.6217 22° Northeast 138 159 4,900 -60 Descending Chicago Center
08:02PM 41.3833 -84.6003 24° Northeast 141 162 4,900  Level Chicago Center
08:03PM 41.4186 -84.5764 27° Northeast 142 163 5,000  Climbing Chicago Center
08:04PM 41.4550 -84.5531 26° Northeast 143 165 5,000  Level Chicago Center
08:05PM 41.4908 -84.5272 28° Northeast 145 167 5,000  Level Chicago Center
08:06PM 41.5328 -84.4964 29° Northeast 145 167 5,000  Level Chicago Center
08:07PM 41.5656 -84.4692 32° Northeast 144 166 5,000  Level Chicago Center